Airport Information

KGEG - Spokane Intl Airport

KGEG 240753Z 18007KT 10SM BKN120 OVC200 22/09 A2991 RMK AO2 SLP108 T02170094 402890156


  • General Information

  • Coordinates: N 47°37'11"/ W 117°32'1"
  • Location: 5 miles SW of Spokane, Washington on 6140 acres of land.
  • Surveyed Elevation: 2376 MSL

Operations

Flow Name Active Runways Conditions
Runway 3 Landing: 3
Departing: 3
Wind Direction: 119-300°
Wind Speed: >10
Calm Wind Landing: 21
Departing: 21
Wind Direction: 000-360°
Wind Speed: <10 or CALM

Green background denotes normal operations.


Common Frequencies

Callsign Frequency Position Name
GEG_DEL 127.55 Spokane Clearance Delivery
GEG_GND 121.9 Spokane Ground
GEG_TWR 118.3 Spokane Tower
GEG_APP/GEG_DEP 123.75 Spokane Approach/Departure

More at the Document Center


Charts

Under Construction